Terminal Aerodrome Forecast
Issued by NWS

Home | Current Version | Previous Version | Text Only | Print | Product List | Glossary On
Versions: 1 2 3 4 5 6 7 8 9 10 11 12 13 14 15 16 17 18 19
000
FTUS41 KPBZ 230800 AAA
TAFFKL
TAF AMD
KFKL 230800Z 2308/2406 22006KT P6SM BKN060
     FM231500 26012KT 5SM -SHRA VCTS BKN035CB
     FM232100 31008KT P6SM BKN035
      AMD LTD TO CLD VIS AND WIND=

USA.gov is the U.S. government's official web portal to all federal, state and local government web resources and services.